createdAt,value
2022-11-29T00:01:25.767Z,35.28
2022-11-29T00:03:53.039Z,36.72
2022-11-29T00:06:22.413Z,39.22
2022-11-29T00:08:49.628Z,37.65
2022-11-29T00:11:38.809Z,35.17
2022-11-29T00:14:06.296Z,36.70
2022-11-29T00:16:33.219Z,37.42
2022-11-29T00:18:59.720Z,36.67
2022-11-29T00:21:26.216Z,38.08
2022-11-29T00:23:52.775Z,37.70
2022-11-29T00:26:19.311Z,37.80
2022-11-29T00:28:45.783Z,37.20
2022-11-29T00:31:13.870Z,38.25
2022-11-29T00:33:40.334Z,37.00
2022-11-29T00:36:07.266Z,37.50
2022-11-29T00:38:33.812Z,37.85
2022-11-29T00:41:00.300Z,38.95
2022-11-29T00:43:26.828Z,40.95
2022-11-29T00:45:53.329Z,40.90
2022-11-29T00:48:19.858Z,40.83
2022-11-29T00:50:46.350Z,41.05
2022-11-29T00:53:12.921Z,41.42
2022-11-29T00:55:39.459Z,42.83
2022-11-29T00:58:06.180Z,41.33
2022-11-29T01:00:32.667Z,41.10
2022-11-29T01:02:59.162Z,41.78
2022-11-29T01:05:25.658Z,39.33
2022-11-29T01:07:52.250Z,40.38
2022-11-29T01:10:18.787Z,40.55
2022-11-29T01:12:45.364Z,41.15
2022-11-29T01:15:12.052Z,40.97
2022-11-29T01:17:39.474Z,40.97
2022-11-29T01:20:07.861Z,42.95
2022-11-29T01:22:35.618Z,44.55
2022-11-29T01:25:02.097Z,44.85
2022-11-29T01:27:29.396Z,43.08
2022-11-29T01:29:55.968Z,44.08
2022-11-29T01:32:22.470Z,45.08
2022-11-29T01:34:48.951Z,45.40
2022-11-29T01:37:15.529Z,44.70
2022-11-29T01:39:42.020Z,45.00
2022-11-29T01:42:12.672Z,43.47
2022-11-29T01:44:39.036Z,45.90
2022-11-29T01:47:05.553Z,46.03
2022-11-29T01:49:40.068Z,44.92
2022-11-29T01:52:09.504Z,43.83
2022-11-29T01:54:39.959Z,46.78
2022-11-29T01:57:07.535Z,47.15
2022-11-29T01:59:34.374Z,47.88
2022-11-29T02:02:06.668Z,45.88
2022-11-29T02:04:36.720Z,46.22
2022-11-29T02:07:03.834Z,50.42
2022-11-29T02:09:30.320Z,46.85
2022-11-29T02:12:09.371Z,49.33
2022-11-29T02:14:39.648Z,48.75
2022-11-29T02:17:24.036Z,35.10
2022-11-29T02:20:06.894Z,49.20
2022-11-29T02:22:53.233Z,49.80
2022-11-29T02:25:38.313Z,49.53
2022-11-29T02:28:13.648Z,51.20
2022-11-29T02:31:07.892Z,54.38
2022-11-29T02:33:48.923Z,54.88
2022-11-29T02:36:27.311Z,52.97
2022-11-29T02:39:36.679Z,53.90
2022-11-29T02:42:54.401Z,50.08
2022-11-29T02:45:51.686Z,51.38
2022-11-29T02:48:51.832Z,52.00
2022-11-29T02:51:52.319Z,53.65
2022-11-29T02:54:26.529Z,52.22
2022-11-29T02:57:19.475Z,52.60
2022-11-29T03:00:10.184Z,51.53
2022-11-29T03:02:52.461Z,53.03
2022-11-29T03:05:21.566Z,51.15
2022-11-29T03:08:30.052Z,54.83
2022-11-29T03:11:12.940Z,57.33
2022-11-29T03:13:52.396Z,53.75
2022-11-29T03:16:28.919Z,55.38
2022-11-29T03:19:13.856Z,55.67
2022-11-29T03:21:59.637Z,52.67
2022-11-29T03:24:31.901Z,54.35
2022-11-29T03:27:09.842Z,56.45
2022-11-29T03:29:40.568Z,56.42
2022-11-29T03:32:15.619Z,54.00
2022-11-29T03:35:20.435Z,56.70
2022-11-29T03:38:16.977Z,51.95
2022-11-29T03:41:00.024Z,51.55
2022-11-29T03:43:59.986Z,51.33
2022-11-29T03:46:29.099Z,49.40
2022-11-29T03:49:01.652Z,48.55
2022-11-29T03:51:37.880Z,50.75
2022-11-29T03:54:10.791Z,47.55
2022-11-29T03:56:39.847Z,47.45
2022-11-29T03:59:30.849Z,48.53
2022-11-29T04:02:30.145Z,46.30
2022-11-29T04:05:22.194Z,47.15
2022-11-29T04:08:27.759Z,45.85
2022-11-29T04:11:05.995Z,49.25
2022-11-29T04:13:45.090Z,46.28
2022-11-29T04:16:51.637Z,46.20
2022-11-29T04:19:48.966Z,48.88
2022-11-29T04:22:24.258Z,46.35
2022-11-29T04:25:12.580Z,47.20
2022-11-29T04:27:49.345Z,46.65
2022-11-29T04:30:25.546Z,44.95
2022-11-29T04:33:14.020Z,48.95
2022-11-29T04:35:55.490Z,48.42
2022-11-29T04:40:56.956Z,50.40
2022-11-29T04:43:54.255Z,46.10
2022-11-29T04:46:32.677Z,43.47
2022-11-29T04:49:07.361Z,43.25
2022-11-29T04:51:47.340Z,45.30
2022-11-29T04:54:22.638Z,42.45
2022-11-29T04:56:56.890Z,42.42
2022-11-29T04:59:44.380Z,40.97
2022-11-29T05:02:46.383Z,43.47
2022-11-29T05:05:24.598Z,41.70
2022-11-29T05:07:51.069Z,37.78
2022-11-29T05:10:36.258Z,40.70
2022-11-29T05:13:19.167Z,42.13
2022-11-29T05:15:45.590Z,39.28
2022-11-29T05:18:30.557Z,38.00
2022-11-29T05:21:08.785Z,40.38
2022-11-29T05:23:38.297Z,39.20
2022-11-29T05:26:10.385Z,40.45
2022-11-29T05:28:59.609Z,41.05
2022-11-29T05:31:41.322Z,39.20
2022-11-29T05:34:34.507Z,36.88
2022-11-29T05:37:27.546Z,35.88
2022-11-29T05:40:06.371Z,37.65
2022-11-29T05:42:51.866Z,36.33
2022-11-29T05:45:34.837Z,37.50
2022-11-29T05:48:44.889Z,39.05
2022-11-29T05:51:16.464Z,34.22
2022-11-29T05:53:51.496Z,30.83
2022-11-29T05:56:40.818Z,36.83
2022-11-29T05:59:13.256Z,30.58
2022-11-29T06:01:52.945Z,29.45
2022-11-29T06:04:45.550Z,29.30
2022-11-29T06:07:23.431Z,33.72
2022-11-29T06:10:01.688Z,31.02
2022-11-29T06:12:31.806Z,30.48
2022-11-29T06:15:35.787Z,36.80
2022-11-29T06:18:24.015Z,35.47
2022-11-29T06:21:00.104Z,37.03
2022-11-29T06:23:58.790Z,38.25
2022-11-29T06:26:51.912Z,39.22
2022-11-29T06:29:28.947Z,38.05
2022-11-29T06:32:11.423Z,39.92
2022-11-29T06:34:59.164Z,40.75
2022-11-29T06:37:38.568Z,36.47
2022-11-29T06:40:06.507Z,38.20
2022-11-29T06:42:32.982Z,39.15
2022-11-29T06:44:59.793Z,40.60
2022-11-29T06:47:32.883Z,40.42
2022-11-29T06:50:36.138Z,37.47
2022-11-29T06:53:24.455Z,38.83
2022-11-29T06:56:27.458Z,38.70
2022-11-29T06:59:03.963Z,38.53
2022-11-29T07:01:40.200Z,39.78
2022-11-29T07:04:20.107Z,38.85
2022-11-29T07:06:46.894Z,38.00
2022-11-29T07:09:16.179Z,38.72
2022-11-29T07:11:42.960Z,38.60
2022-11-29T07:14:09.958Z,38.15
2022-11-29T07:17:14.103Z,39.33
2022-11-29T07:20:18.886Z,37.33
2022-11-29T07:23:10.898Z,37.22
2022-11-29T07:25:55.774Z,38.25
2022-11-29T07:28:43.406Z,38.78
2022-11-29T07:31:28.415Z,39.15
2022-11-29T07:34:19.962Z,35.83
2022-11-29T07:39:24.105Z,33.60
2022-11-29T07:42:20.435Z,36.92
2022-11-29T07:44:59.412Z,35.65
2022-11-29T07:47:25.909Z,39.03
2022-11-29T07:49:52.459Z,36.47
2022-11-29T07:52:18.974Z,37.45
2022-11-29T07:54:45.988Z,38.30
2022-11-29T07:57:12.688Z,37.47
2022-11-29T07:59:39.196Z,35.28
2022-11-29T08:02:11.527Z,36.78
2022-11-29T08:04:44.981Z,34.97
2022-11-29T08:07:11.755Z,36.63
2022-11-29T08:09:38.295Z,36.08
2022-11-29T08:12:05.030Z,35.08
2022-11-29T08:14:33.231Z,34.63
2022-11-29T08:16:59.728Z,36.15
2022-11-29T08:19:26.254Z,34.80
2022-11-29T08:21:53.012Z,34.38
2022-11-29T08:24:19.560Z,33.53
2022-11-29T08:26:46.195Z,36.83
2022-11-29T08:29:12.847Z,34.08
2022-11-29T08:31:39.470Z,36.50
2022-11-29T08:34:07.169Z,34.60
2022-11-29T08:36:34.100Z,37.17
2022-11-29T08:39:09.177Z,36.78
2022-11-29T08:41:36.442Z,34.25
2022-11-29T08:44:05.063Z,33.63
2022-11-29T08:46:50.462Z,34.03
2022-11-29T08:49:16.983Z,32.28
2022-11-29T08:51:43.751Z,33.33
2022-11-29T08:54:10.366Z,34.58
2022-11-29T08:59:23.960Z,31.90
2022-11-29T09:01:50.818Z,34.05
2022-11-29T09:04:17.565Z,34.80
2022-11-29T09:06:44.401Z,33.58
2022-11-29T09:09:10.875Z,34.95
2022-11-29T09:11:37.454Z,35.00
2022-11-29T09:14:14.236Z,35.75
2022-11-29T09:16:40.866Z,36.72
2022-11-29T09:19:07.825Z,36.65
2022-11-29T09:21:38.635Z,36.53
2022-11-29T09:24:06.419Z,35.50
2022-11-29T09:26:35.811Z,37.40
2022-11-29T09:29:04.161Z,39.95
2022-11-29T09:31:32.339Z,40.03
2022-11-29T09:33:59.316Z,39.55
2022-11-29T09:36:28.810Z,42.33
2022-11-29T09:38:56.830Z,41.03
2022-11-29T09:41:37.534Z,42.83
2022-11-29T09:44:27.385Z,40.15
2022-11-29T09:47:02.028Z,39.00
2022-11-29T09:49:40.241Z,43.05
2022-11-29T09:52:15.843Z,41.15
2022-11-29T09:55:00.676Z,42.22
2022-11-29T09:57:28.510Z,41.20
2022-11-29T09:59:58.741Z,43.80
2022-11-29T10:02:32.995Z,42.88
2022-11-29T10:05:30.065Z,45.95
2022-11-29T10:08:02.039Z,47.97
2022-11-29T10:10:45.605Z,47.30
2022-11-29T10:13:25.334Z,42.42
2022-11-29T10:15:54.534Z,42.38
2022-11-29T10:18:29.227Z,41.38
2022-11-29T10:21:00.300Z,40.83
2022-11-29T10:23:32.029Z,42.88
2022-11-29T10:25:58.703Z,41.78
2022-11-29T10:28:30.996Z,37.42
2022-11-29T10:31:07.930Z,41.13
2022-11-29T10:33:37.138Z,45.25
2022-11-29T10:36:15.860Z,42.83
2022-11-29T10:38:44.060Z,41.70
2022-11-29T10:41:14.182Z,40.58
2022-11-29T10:43:40.726Z,40.25
2022-11-29T10:46:14.193Z,35.42
2022-11-29T10:48:40.735Z,41.10
2022-11-29T10:51:15.441Z,42.10
2022-11-29T10:53:42.459Z,39.45
2022-11-29T10:56:31.347Z,33.75
2022-11-29T10:59:09.283Z,32.80
2022-11-29T11:01:38.167Z,41.92
2022-11-29T11:04:07.455Z,39.78
2022-11-29T11:06:49.378Z,34.63
2022-11-29T11:09:28.220Z,34.63
2022-11-29T11:11:59.953Z,33.03
2022-11-29T11:14:29.206Z,31.70
2022-11-29T11:16:56.316Z,31.08
2022-11-29T11:19:29.857Z,31.10
2022-11-29T11:21:58.106Z,31.02
2022-11-29T11:24:30.229Z,33.78
2022-11-29T11:26:57.656Z,32.30
2022-11-29T11:29:36.281Z,32.35
2022-11-29T11:32:04.188Z,31.00
2022-11-29T11:34:35.675Z,31.40
2022-11-29T11:37:26.903Z,30.83
2022-11-29T11:39:57.160Z,33.83
2022-11-29T11:42:39.120Z,33.58
2022-11-29T11:45:11.630Z,31.48
2022-11-29T11:47:44.295Z,33.15
2022-11-29T11:50:16.597Z,32.00
2022-11-29T11:52:52.239Z,33.05
2022-11-29T11:55:21.480Z,35.10
2022-11-29T11:58:10.123Z,32.42
2022-11-29T12:01:07.361Z,33.58
2022-11-29T12:03:39.642Z,33.25
2022-11-29T12:06:06.086Z,33.85
2022-11-29T12:08:32.865Z,33.13
2022-11-29T12:11:07.242Z,35.05
2022-11-29T12:13:38.730Z,33.85
2022-11-29T12:16:13.164Z,34.25
2022-11-29T12:18:44.488Z,37.90
2022-11-29T12:23:47.622Z,34.90
2022-11-29T12:26:55.300Z,38.00
2022-11-29T12:29:13.264Z,34.65
2022-11-29T12:31:58.560Z,36.83
2022-11-29T12:34:42.775Z,37.10
2022-11-29T12:37:45.975Z,35.70
2022-11-29T12:40:22.334Z,34.75
2022-11-29T12:43:09.750Z,36.70
2022-11-29T12:46:04.878Z,34.38
2022-11-29T12:49:01.625Z,31.23
2022-11-29T12:51:37.012Z,31.25
2022-11-29T12:54:15.865Z,31.42
2022-11-29T12:57:08.883Z,33.22
2022-11-29T12:59:44.130Z,33.33
2022-11-29T13:02:32.189Z,33.20
2022-11-29T13:05:04.013Z,31.60
2022-11-29T13:07:45.493Z,43.20
2022-11-29T13:10:43.131Z,36.90
2022-11-29T13:13:32.131Z,34.08
2022-11-29T13:16:06.742Z,32.10
2022-11-29T13:18:50.740Z,33.83
2022-11-29T13:21:23.994Z,32.42
2022-11-29T13:24:09.694Z,32.33
2022-11-29T13:26:38.513Z,31.40
2022-11-29T13:29:06.572Z,29.55
2022-11-29T13:31:33.250Z,31.40
2022-11-29T13:34:09.658Z,31.55
2022-11-29T13:36:48.389Z,28.88
2022-11-29T13:39:33.603Z,32.55
2022-11-29T13:42:37.206Z,28.38
2022-11-29T13:45:24.025Z,28.00
2022-11-29T13:47:59.517Z,28.80
2022-11-29T13:50:39.626Z,26.88
2022-11-29T13:53:14.146Z,27.42
2022-11-29T13:56:00.043Z,30.75
2022-11-29T13:58:29.232Z,30.30
2022-11-29T14:01:05.688Z,30.50
2022-11-29T14:03:43.935Z,31.88
2022-11-29T14:06:15.445Z,32.75
2022-11-29T14:11:59.417Z,33.92
2022-11-29T14:14:48.462Z,34.35
2022-11-29T14:17:34.956Z,32.95
2022-11-29T14:20:22.930Z,34.33
2022-11-29T14:23:04.686Z,33.08
2022-11-29T14:25:50.999Z,34.78
2022-11-29T14:28:17.848Z,32.97
2022-11-29T14:30:44.257Z,32.80
2022-11-29T14:33:13.517Z,32.65
2022-11-29T14:35:44.223Z,31.50
2022-11-29T14:38:10.623Z,31.55
2022-11-29T14:40:48.356Z,32.42
2022-11-29T14:43:36.111Z,31.35
2022-11-29T14:46:11.399Z,31.55
2022-11-29T14:48:38.207Z,29.67
2022-11-29T14:51:12.762Z,27.27
2022-11-29T14:53:40.914Z,29.02
2022-11-29T14:56:42.990Z,27.45
2022-11-29T14:59:46.992Z,28.77
2022-11-29T15:02:34.787Z,25.27
2022-11-29T15:05:22.654Z,26.35
2022-11-29T15:08:00.947Z,26.63
2022-11-29T15:10:33.526Z,27.65
2022-11-29T15:13:00.542Z,28.77
2022-11-29T15:15:45.509Z,24.75
2022-11-29T15:18:27.839Z,27.58
2022-11-29T15:21:09.012Z,26.60
2022-11-29T15:23:42.734Z,27.38
2022-11-29T15:26:20.622Z,28.30
2022-11-29T15:28:47.088Z,28.77
2022-11-29T15:31:16.433Z,26.63
2022-11-29T15:33:44.272Z,25.83
2022-11-29T15:36:21.517Z,25.38
2022-11-29T15:38:50.733Z,26.10
2022-11-29T15:41:31.602Z,25.90
2022-11-29T15:44:05.689Z,26.15
2022-11-29T15:46:34.647Z,24.63
2022-11-29T15:49:27.598Z,23.45
2022-11-29T15:51:57.206Z,22.85
2022-11-29T15:54:33.890Z,21.95
2022-11-29T15:57:03.986Z,23.02
2022-11-29T15:59:37.953Z,24.25
2022-11-29T16:02:27.692Z,22.75
2022-11-29T16:04:57.752Z,21.80
2022-11-29T16:07:25.892Z,22.35
2022-11-29T16:09:59.341Z,23.63
2022-11-29T16:12:26.378Z,23.65
2022-11-29T16:14:57.727Z,21.83
2022-11-29T16:20:13.950Z,27.17
2022-11-29T16:22:40.484Z,27.73
2022-11-29T16:25:16.336Z,27.10
2022-11-29T16:27:42.986Z,27.77
2022-11-29T16:30:23.238Z,29.75
2022-11-29T16:33:00.410Z,26.83
2022-11-29T16:35:32.988Z,26.25
2022-11-29T16:38:03.618Z,23.08
2022-11-29T16:40:32.333Z,23.83
2022-11-29T16:43:04.613Z,20.98
2022-11-29T16:45:40.861Z,22.02
2022-11-29T16:48:22.341Z,21.13
2022-11-29T16:53:36.053Z,21.38
2022-11-29T16:56:08.181Z,21.52
2022-11-29T16:58:37.550Z,22.20
2022-11-29T17:01:26.049Z,20.65
2022-11-29T17:03:53.561Z,23.45
2022-11-29T17:06:22.668Z,24.90
2022-11-29T17:08:54.855Z,25.15
2022-11-29T17:11:21.889Z,27.63
2022-11-29T17:13:50.041Z,26.17
2022-11-29T17:16:20.801Z,29.33
2022-11-29T17:18:48.013Z,29.98
2022-11-29T17:21:21.574Z,28.95
2022-11-29T17:23:48.551Z,30.25
2022-11-29T17:26:15.517Z,29.02
2022-11-29T17:28:43.253Z,29.45
2022-11-29T17:31:15.039Z,31.83
2022-11-29T17:33:41.713Z,31.88
2022-11-29T17:36:10.621Z,31.60
2022-11-29T17:38:37.591Z,29.88
2022-11-29T17:41:14.832Z,29.85
2022-11-29T17:43:41.412Z,29.63
2022-11-29T17:46:11.665Z,30.45
2022-11-29T17:48:41.300Z,29.77
2022-11-29T17:51:28.905Z,28.38
2022-11-29T17:53:54.864Z,30.58
2022-11-29T17:56:24.601Z,31.30
2022-11-29T17:58:52.829Z,30.13
2022-11-29T18:01:23.972Z,30.52
2022-11-29T18:06:25.854Z,27.85
2022-11-29T18:08:57.694Z,28.65
2022-11-29T18:11:29.897Z,30.23
2022-11-29T18:13:57.856Z,27.23
2022-11-29T18:16:29.286Z,28.27
2022-11-29T18:19:11.167Z,30.40
2022-11-29T18:21:38.072Z,29.15
2022-11-29T18:24:06.202Z,30.25
2022-11-29T18:26:33.963Z,33.97
2022-11-29T18:29:00.950Z,34.20
2022-11-29T18:31:32.393Z,36.08
2022-11-29T18:34:00.991Z,35.83
2022-11-29T18:36:32.169Z,38.38
2022-11-29T18:41:30.499Z,38.92
2022-11-29T18:43:59.406Z,37.03
2022-11-29T18:46:27.028Z,36.60
2022-11-29T18:48:53.538Z,37.67
2022-11-29T18:51:20.538Z,37.85
2022-11-29T18:53:47.415Z,35.78
2022-11-29T18:56:16.535Z,36.58
2022-11-29T18:58:44.494Z,37.45
2022-11-29T19:01:15.880Z,35.13
2022-11-29T19:03:44.731Z,34.90
2022-11-29T19:06:16.493Z,34.65
2022-11-29T19:08:43.254Z,32.75
2022-11-29T19:11:12.134Z,35.70
2022-11-29T19:13:39.285Z,35.53
2022-11-29T19:16:12.960Z,29.85
2022-11-29T19:18:39.834Z,31.75
2022-11-29T19:21:16.595Z,29.85
2022-11-29T19:23:44.070Z,28.13
2022-11-29T19:26:12.542Z,30.10
2022-11-29T19:28:44.568Z,31.48
2022-11-29T19:31:13.149Z,30.08
2022-11-29T19:33:41.339Z,30.40
2022-11-29T19:36:12.035Z,36.30
2022-11-29T19:38:39.311Z,38.60
2022-11-29T19:41:10.395Z,37.63
2022-11-29T19:43:37.033Z,41.10
2022-11-29T19:46:15.343Z,37.75
2022-11-29T19:48:42.042Z,37.95
2022-11-29T19:51:09.219Z,42.35
2022-11-29T19:53:36.464Z,42.53
2022-11-29T19:56:07.683Z,40.70
2022-11-29T20:01:07.921Z,36.72
2022-11-29T20:03:35.024Z,37.50
2022-11-29T20:06:02.194Z,37.15
2022-11-29T20:08:29.286Z,38.67
2022-11-29T20:10:55.855Z,37.72
2022-11-29T20:13:22.611Z,36.72
2022-11-29T20:15:49.468Z,38.78
2022-11-29T20:18:16.051Z,37.45
2022-11-29T20:20:42.636Z,38.35
2022-11-29T20:23:09.168Z,36.75
2022-11-29T20:25:36.402Z,38.03
2022-11-29T20:28:04.051Z,36.35
2022-11-29T20:30:30.528Z,36.13
2022-11-29T20:32:57.311Z,39.00
2022-11-29T20:35:23.998Z,37.30
2022-11-29T20:38:01.784Z,40.10
2022-11-29T20:40:40.128Z,35.80
2022-11-29T20:43:13.545Z,38.90
2022-11-29T20:45:40.220Z,39.75
2022-11-29T20:48:14.003Z,38.78
2022-11-29T20:50:43.154Z,38.58
2022-11-29T20:53:21.858Z,38.92
2022-11-29T20:55:48.866Z,40.88
2022-11-29T20:58:16.135Z,41.53
2022-11-29T21:00:42.666Z,41.30
2022-11-29T21:03:12.993Z,42.53
2022-11-29T21:05:39.522Z,40.72
2022-11-29T21:08:06.100Z,39.92
2022-11-29T21:10:33.284Z,42.78
2022-11-29T21:13:00.163Z,43.08
2022-11-29T21:15:27.025Z,43.17
2022-11-29T21:17:53.771Z,45.40
2022-11-29T21:20:25.518Z,42.90
2022-11-29T21:23:05.396Z,42.65
2022-11-29T21:25:45.302Z,44.97
2022-11-29T21:28:14.144Z,45.33
2022-11-29T21:30:41.527Z,47.20
2022-11-29T21:33:08.579Z,46.35
2022-11-29T21:35:37.383Z,46.83
2022-11-29T21:38:03.941Z,46.75
2022-11-29T21:40:31.581Z,46.95
2022-11-29T21:42:58.283Z,47.53
2022-11-29T21:45:24.816Z,44.55
2022-11-29T21:47:51.337Z,49.60
2022-11-29T21:50:18.387Z,49.47
2022-11-29T21:52:44.980Z,49.47
2022-11-29T21:55:12.156Z,52.45
2022-11-29T21:57:38.855Z,50.53
2022-11-29T22:00:06.179Z,48.65
2022-11-29T22:02:33.376Z,47.78
2022-11-29T22:04:59.934Z,47.22
2022-11-29T22:07:27.107Z,47.40
2022-11-29T22:09:53.620Z,47.47
2022-11-29T22:12:33.728Z,49.28
2022-11-29T22:15:00.531Z,46.37
2022-11-29T22:17:27.083Z,47.33
2022-11-29T22:19:54.367Z,49.90
2022-11-29T22:22:21.051Z,45.70
2022-11-29T22:24:48.039Z,48.70
2022-11-29T22:27:14.730Z,47.83
2022-11-29T22:29:41.222Z,49.92
2022-11-29T22:32:07.708Z,47.78
2022-11-29T22:34:34.214Z,48.60
2022-11-29T22:37:00.689Z,49.00
2022-11-29T22:39:27.283Z,48.88
2022-11-29T22:41:55.037Z,47.17
2022-11-29T22:44:25.728Z,48.90
2022-11-29T22:46:52.370Z,52.08
2022-11-29T22:49:19.064Z,52.03
2022-11-29T22:51:45.582Z,50.95
2022-11-29T22:54:15.281Z,52.55
2022-11-29T22:56:42.837Z,50.30
2022-11-29T22:59:09.762Z,54.40
2022-11-29T23:01:39.135Z,50.90
2022-11-29T23:04:09.216Z,50.25
2022-11-29T23:06:37.907Z,49.35
2022-11-29T23:09:15.788Z,49.08
2022-11-29T23:11:47.782Z,51.75
2022-11-29T23:14:14.365Z,51.63
2022-11-29T23:16:40.959Z,50.65
2022-11-29T23:19:07.804Z,53.17
2022-11-29T23:21:36.507Z,50.08
2022-11-29T23:24:03.783Z,52.03
2022-11-29T23:26:40.069Z,49.80
2022-11-29T23:29:08.552Z,50.65
2022-11-29T23:31:35.116Z,48.67
2022-11-29T23:34:02.217Z,47.38
2022-11-29T23:36:28.915Z,49.13
2022-11-29T23:38:55.918Z,47.97
2022-11-29T23:41:22.451Z,46.95
2022-11-29T23:43:48.996Z,48.58
2022-11-29T23:46:20.443Z,48.45
2022-11-29T23:48:47.493Z,50.35
2022-11-29T23:51:14.039Z,46.20
2022-11-29T23:53:41.045Z,47.25
2022-11-29T23:56:11.565Z,49.80
2022-11-29T23:58:38.393Z,46.53
